sensor_id;sensor_type;location;lat;lon;timestamp;pressure;altitude;pressure_sealevel;temperature;humidity
17521;BME280;8878;-33.370;-70.552;2023-02-28T00:00:35;92006.31;;;32.15;19.38
17521;BME280;8878;-33.370;-70.552;2023-02-28T00:03:19;92015.38;;;32.01;19.16
17521;BME280;8878;-33.370;-70.552;2023-02-28T00:05:51;92008.41;;;31.93;18.97
17521;BME280;8878;-33.370;-70.552;2023-02-28T00:08:22;92013.16;;;31.85;18.64
17521;BME280;8878;-33.370;-70.552;2023-02-28T00:11:01;92017.63;;;31.62;19.24
17521;BME280;8878;-33.370;-70.552;2023-02-28T00:13:34;92025.44;;;31.52;19.63
17521;BME280;8878;-33.370;-70.552;2023-02-28T00:16:16;92025.03;;;31.54;19.34
17521;BME280;8878;-33.370;-70.552;2023-02-28T00:18:47;92029.06;;;31.32;20.96
17521;BME280;8878;-33.370;-70.552;2023-02-28T00:21:27;92037.34;;;31.10;21.07
17521;BME280;8878;-33.370;-70.552;2023-02-28T00:23:56;92036.53;;;31.13;20.65
17521;BME280;8878;-33.370;-70.552;2023-02-28T00:26:28;92047.81;;;31.05;21.01
17521;BME280;8878;-33.370;-70.552;2023-02-28T00:29:00;92053.75;;;30.75;21.09
17521;BME280;8878;-33.370;-70.552;2023-02-28T00:31:38;92042.47;;;30.73;20.76
17521;BME280;8878;-33.370;-70.552;2023-02-28T00:34:07;92052.19;;;30.70;21.18
17521;BME280;8878;-33.370;-70.552;2023-02-28T00:36:37;92067.78;;;30.34;18.81
17521;BME280;8878;-33.370;-70.552;2023-02-28T00:39:10;92063.13;;;30.35;20.12
17521;BME280;8878;-33.370;-70.552;2023-02-28T00:41:42;92070.91;;;30.22;21.24
17521;BME280;8878;-33.370;-70.552;2023-02-28T00:44:12;92069.72;;;30.06;21.49
17521;BME280;8878;-33.370;-70.552;2023-02-28T00:46:41;92087.25;;;30.29;20.44
17521;BME280;8878;-33.370;-70.552;2023-02-28T00:49:14;92077.53;;;30.25;20.82
17521;BME280;8878;-33.370;-70.552;2023-02-28T00:51:50;92080.16;;;29.65;19.65
17521;BME280;8878;-33.370;-70.552;2023-02-28T00:54:27;92085.63;;;29.86;20.13
17521;BME280;8878;-33.370;-70.552;2023-02-28T00:57:01;92080.63;;;29.95;20.00
17521;BME280;8878;-33.370;-70.552;2023-02-28T00:59:34;92091.13;;;30.21;20.11
17521;BME280;8878;-33.370;-70.552;2023-02-28T01:02:09;92095.41;;;30.15;19.66
17521;BME280;8878;-33.370;-70.552;2023-02-28T01:04:46;92095.00;;;30.10;21.64
17521;BME280;8878;-33.370;-70.552;2023-02-28T01:07:19;92101.16;;;29.85;21.09
17521;BME280;8878;-33.370;-70.552;2023-02-28T01:09:48;92098.13;;;29.98;20.42
17521;BME280;8878;-33.370;-70.552;2023-02-28T01:12:19;92098.91;;;30.05;19.79
17521;BME280;8878;-33.370;-70.552;2023-02-28T01:14:49;92093.84;;;30.00;22.14
17521;BME280;8878;-33.370;-70.552;2023-02-28T01:17:18;92101.53;;;29.63;22.46
17521;BME280;8878;-33.370;-70.552;2023-02-28T01:19:47;92101.88;;;29.50;23.22
17521;BME280;8878;-33.370;-70.552;2023-02-28T01:22:17;92099.47;;;29.35;23.69
17521;BME280;8878;-33.370;-70.552;2023-02-28T01:24:46;92093.56;;;29.11;24.72
17521;BME280;8878;-33.370;-70.552;2023-02-28T01:27:16;92099.38;;;29.10;24.92
17521;BME280;8878;-33.370;-70.552;2023-02-28T01:29:48;92099.41;;;29.17;24.20
17521;BME280;8878;-33.370;-70.552;2023-02-28T01:32:17;92105.97;;;29.12;24.55
17521;BME280;8878;-33.370;-70.552;2023-02-28T01:34:46;92102.72;;;28.86;24.83
17521;BME280;8878;-33.370;-70.552;2023-02-28T01:37:16;92105.47;;;28.89;24.03
17521;BME280;8878;-33.370;-70.552;2023-02-28T01:39:45;92100.03;;;28.93;23.78
17521;BME280;8878;-33.370;-70.552;2023-02-28T01:42:15;92114.78;;;28.85;23.81
17521;BME280;8878;-33.370;-70.552;2023-02-28T01:45:03;92109.19;;;28.67;24.16
17521;BME280;8878;-33.370;-70.552;2023-02-28T01:47:34;92116.53;;;28.63;24.29
17521;BME280;8878;-33.370;-70.552;2023-02-28T01:50:09;92116.91;;;28.61;24.43
17521;BME280;8878;-33.370;-70.552;2023-02-28T01:52:41;92116.88;;;28.54;24.32
17521;BME280;8878;-33.370;-70.552;2023-02-28T01:55:12;92118.38;;;28.48;25.56
17521;BME280;8878;-33.370;-70.552;2023-02-28T01:57:45;92113.16;;;28.25;25.24
17521;BME280;8878;-33.370;-70.552;2023-02-28T02:00:20;92114.34;;;28.28;25.20
17521;BME280;8878;-33.370;-70.552;2023-02-28T02:02:55;92121.03;;;28.41;24.54
17521;BME280;8878;-33.370;-70.552;2023-02-28T02:05:26;92119.88;;;28.42;24.30
17521;BME280;8878;-33.370;-70.552;2023-02-28T02:07:57;92122.16;;;28.36;24.74
17521;BME280;8878;-33.370;-70.552;2023-02-28T02:10:31;92133.00;;;28.33;24.13
17521;BME280;8878;-33.370;-70.552;2023-02-28T02:13:19;92129.94;;;28.38;24.74
17521;BME280;8878;-33.370;-70.552;2023-02-28T02:16:04;92124.56;;;28.45;24.29
17521;BME280;8878;-33.370;-70.552;2023-02-28T02:18:42;92130.28;;;28.36;24.08
17521;BME280;8878;-33.370;-70.552;2023-02-28T02:21:48;92126.00;;;28.32;25.38
17521;BME280;8878;-33.370;-70.552;2023-02-28T02:28:14;92130.34;;;27.99;24.63
17521;BME280;8878;-33.370;-70.552;2023-02-28T02:30:53;92125.81;;;28.11;24.62
17521;BME280;8878;-33.370;-70.552;2023-02-28T02:36:48;92126.47;;;27.97;24.87
17521;BME280;8878;-33.370;-70.552;2023-02-28T02:39:24;92128.81;;;27.98;26.29
17521;BME280;8878;-33.370;-70.552;2023-02-28T02:42:00;92127.09;;;27.83;27.54
17521;BME280;8878;-33.370;-70.552;2023-02-28T02:44:35;92124.41;;;27.83;27.68
17521;BME280;8878;-33.370;-70.552;2023-02-28T02:47:10;92121.56;;;27.73;28.73
17521;BME280;8878;-33.370;-70.552;2023-02-28T02:49:45;92125.41;;;27.72;29.35
17521;BME280;8878;-33.370;-70.552;2023-02-28T02:52:18;92114.06;;;27.59;28.54
17521;BME280;8878;-33.370;-70.552;2023-02-28T02:54:53;92117.38;;;27.45;28.81
17521;BME280;8878;-33.370;-70.552;2023-02-28T02:57:25;92125.88;;;27.44;28.84
17521;BME280;8878;-33.370;-70.552;2023-02-28T03:00:00;92128.59;;;27.44;27.60
17521;BME280;8878;-33.370;-70.552;2023-02-28T03:02:32;92130.06;;;27.38;27.34
17521;BME280;8878;-33.370;-70.552;2023-02-28T03:05:08;92119.72;;;27.47;27.84
17521;BME280;8878;-33.370;-70.552;2023-02-28T03:07:42;92131.03;;;27.22;27.99
17521;BME280;8878;-33.370;-70.552;2023-02-28T03:10:31;92127.06;;;27.13;28.92
17521;BME280;8878;-33.370;-70.552;2023-02-28T03:13:19;92137.03;;;27.05;27.98
17521;BME280;8878;-33.370;-70.552;2023-02-28T03:16:13;92134.63;;;27.00;26.63
17521;BME280;8878;-33.370;-70.552;2023-02-28T03:18:52;92140.47;;;27.02;28.60
17521;BME280;8878;-33.370;-70.552;2023-02-28T03:21:28;92139.66;;;26.98;28.36
17521;BME280;8878;-33.370;-70.552;2023-02-28T03:24:04;92147.03;;;26.75;27.35
17521;BME280;8878;-33.370;-70.552;2023-02-28T03:26:38;92153.69;;;26.81;29.46
17521;BME280;8878;-33.370;-70.552;2023-02-28T03:29:13;92144.09;;;26.87;29.00
17521;BME280;8878;-33.370;-70.552;2023-02-28T03:31:50;92144.53;;;26.89;29.69
17521;BME280;8878;-33.370;-70.552;2023-02-28T03:34:29;92141.34;;;26.83;29.88
17521;BME280;8878;-33.370;-70.552;2023-02-28T03:37:05;92133.47;;;26.71;29.55
17521;BME280;8878;-33.370;-70.552;2023-02-28T03:39:39;92138.28;;;26.59;29.17
17521;BME280;8878;-33.370;-70.552;2023-02-28T03:42:12;92143.56;;;26.48;30.39
17521;BME280;8878;-33.370;-70.552;2023-02-28T03:44:45;92145.38;;;26.40;29.66
17521;BME280;8878;-33.370;-70.552;2023-02-28T03:47:19;92136.69;;;26.54;30.15
17521;BME280;8878;-33.370;-70.552;2023-02-28T03:49:52;92142.41;;;26.49;30.01
17521;BME280;8878;-33.370;-70.552;2023-02-28T03:52:28;92133.91;;;26.50;28.20
17521;BME280;8878;-33.370;-70.552;2023-02-28T03:55:02;92135.34;;;26.41;30.23
17521;BME280;8878;-33.370;-70.552;2023-02-28T03:57:38;92131.53;;;26.45;29.14
17521;BME280;8878;-33.370;-70.552;2023-02-28T04:00:13;92134.09;;;26.35;28.68
17521;BME280;8878;-33.370;-70.552;2023-02-28T04:02:44;92130.25;;;26.36;28.51
17521;BME280;8878;-33.370;-70.552;2023-02-28T04:05:13;92133.69;;;26.36;29.14
17521;BME280;8878;-33.370;-70.552;2023-02-28T04:07:44;92126.56;;;26.25;28.95
17521;BME280;8878;-33.370;-70.552;2023-02-28T04:10:14;92125.22;;;26.15;29.85
17521;BME280;8878;-33.370;-70.552;2023-02-28T04:12:43;92127.78;;;26.04;30.81
17521;BME280;8878;-33.370;-70.552;2023-02-28T04:15:13;92122.06;;;25.87;30.26
17521;BME280;8878;-33.370;-70.552;2023-02-28T04:17:42;92129.22;;;25.98;29.75
17521;BME280;8878;-33.370;-70.552;2023-02-28T04:20:12;92114.91;;;25.98;29.49
17521;BME280;8878;-33.370;-70.552;2023-02-28T04:22:43;92125.19;;;25.89;29.56
17521;BME280;8878;-33.370;-70.552;2023-02-28T04:25:12;92121.22;;;25.83;30.22
17521;BME280;8878;-33.370;-70.552;2023-02-28T04:27:43;92122.97;;;25.71;29.92
17521;BME280;8878;-33.370;-70.552;2023-02-28T04:30:12;92121.03;;;25.72;29.93
17521;BME280;8878;-33.370;-70.552;2023-02-28T04:32:42;92120.16;;;25.64;29.42
17521;BME280;8878;-33.370;-70.552;2023-02-28T04:35:11;92117.84;;;25.66;30.09
17521;BME280;8878;-33.370;-70.552;2023-02-28T04:37:40;92113.88;;;25.60;29.75
17521;BME280;8878;-33.370;-70.552;2023-02-28T04:40:12;92118.78;;;25.55;28.96
17521;BME280;8878;-33.370;-70.552;2023-02-28T04:42:41;92112.56;;;25.73;28.19
17521;BME280;8878;-33.370;-70.552;2023-02-28T04:45:11;92111.50;;;25.78;28.94
17521;BME280;8878;-33.370;-70.552;2023-02-28T04:47:40;92120.28;;;25.71;28.72
17521;BME280;8878;-33.370;-70.552;2023-02-28T04:50:10;92114.84;;;25.52;28.67
17521;BME280;8878;-33.370;-70.552;2023-02-28T04:52:39;92113.09;;;25.60;28.49
17521;BME280;8878;-33.370;-70.552;2023-02-28T04:55:11;92114.00;;;25.67;28.59
17521;BME280;8878;-33.370;-70.552;2023-02-28T04:57:40;92101.22;;;25.45;29.14
17521;BME280;8878;-33.370;-70.552;2023-02-28T05:00:12;92096.47;;;25.39;28.96
17521;BME280;8878;-33.370;-70.552;2023-02-28T05:02:43;92101.22;;;25.45;28.92
17521;BME280;8878;-33.370;-70.552;2023-02-28T05:05:12;92096.81;;;25.56;28.89
17521;BME280;8878;-33.370;-70.552;2023-02-28T05:07:44;92096.97;;;25.44;28.80
17521;BME280;8878;-33.370;-70.552;2023-02-28T05:10:16;92099.25;;;25.42;29.37
17521;BME280;8878;-33.370;-70.552;2023-02-28T05:12:45;92098.13;;;25.43;30.59
17521;BME280;8878;-33.370;-70.552;2023-02-28T05:15:15;92093.16;;;25.26;30.44
17521;BME280;8878;-33.370;-70.552;2023-02-28T05:17:45;92093.69;;;25.54;29.14
17521;BME280;8878;-33.370;-70.552;2023-02-28T05:20:14;92086.88;;;25.41;29.81
17521;BME280;8878;-33.370;-70.552;2023-02-28T05:22:45;92088.66;;;25.33;30.06
17521;BME280;8878;-33.370;-70.552;2023-02-28T05:25:17;92086.28;;;25.28;30.76
17521;BME280;8878;-33.370;-70.552;2023-02-28T05:27:47;92087.75;;;25.26;31.74
17521;BME280;8878;-33.370;-70.552;2023-02-28T05:30:16;92091.53;;;25.21;31.35
17521;BME280;8878;-33.370;-70.552;2023-02-28T05:32:50;92085.22;;;25.14;31.46
17521;BME280;8878;-33.370;-70.552;2023-02-28T05:35:20;92086.28;;;25.28;30.84
17521;BME280;8878;-33.370;-70.552;2023-02-28T05:37:50;92079.44;;;25.34;29.18
17521;BME280;8878;-33.370;-70.552;2023-02-28T05:40:21;92082.19;;;25.38;29.48
17521;BME280;8878;-33.370;-70.552;2023-02-28T05:42:51;92078.31;;;25.16;31.28
17521;BME280;8878;-33.370;-70.552;2023-02-28T05:45:20;92079.81;;;25.14;31.75
17521;BME280;8878;-33.370;-70.552;2023-02-28T05:47:51;92084.50;;;25.17;31.15
17521;BME280;8878;-33.370;-70.552;2023-02-28T05:50:22;92088.19;;;25.09;29.56
17521;BME280;8878;-33.370;-70.552;2023-02-28T05:52:51;92092.25;;;24.99;30.45
17521;BME280;8878;-33.370;-70.552;2023-02-28T05:55:23;92083.81;;;25.01;31.18
17521;BME280;8878;-33.370;-70.552;2023-02-28T05:57:52;92093.41;;;24.98;31.28
17521;BME280;8878;-33.370;-70.552;2023-02-28T06:00:22;92088.78;;;24.99;31.29
17521;BME280;8878;-33.370;-70.552;2023-02-28T06:02:51;92089.25;;;24.85;31.76
17521;BME280;8878;-33.370;-70.552;2023-02-28T06:05:23;92089.59;;;24.83;31.50
17521;BME280;8878;-33.370;-70.552;2023-02-28T06:07:52;92078.66;;;24.76;30.63
17521;BME280;8878;-33.370;-70.552;2023-02-28T06:10:24;92083.91;;;24.69;30.88
17521;BME280;8878;-33.370;-70.552;2023-02-28T06:12:55;92063.75;;;24.82;30.53
17521;BME280;8878;-33.370;-70.552;2023-02-28T06:15:24;92067.16;;;24.79;30.74
17521;BME280;8878;-33.370;-70.552;2023-02-28T06:17:54;92064.47;;;24.79;30.07
17521;BME280;8878;-33.370;-70.552;2023-02-28T06:20:26;92065.88;;;24.73;28.82
17521;BME280;8878;-33.370;-70.552;2023-02-28T06:22:56;92060.47;;;24.73;28.15
17521;BME280;8878;-33.370;-70.552;2023-02-28T06:25:28;92056.78;;;24.81;29.05
17521;BME280;8878;-33.370;-70.552;2023-02-28T06:27:58;92059.63;;;24.88;29.35
17521;BME280;8878;-33.370;-70.552;2023-02-28T06:30:28;92053.69;;;24.79;28.71
17521;BME280;8878;-33.370;-70.552;2023-02-28T06:32:58;92056.59;;;24.90;29.11
17521;BME280;8878;-33.370;-70.552;2023-02-28T06:35:27;92047.69;;;24.89;28.58
17521;BME280;8878;-33.370;-70.552;2023-02-28T06:37:57;92046.28;;;24.76;28.54
17521;BME280;8878;-33.370;-70.552;2023-02-28T06:40:28;92042.38;;;24.74;28.45
17521;BME280;8878;-33.370;-70.552;2023-02-28T06:42:58;92037.84;;;24.78;28.74
17521;BME280;8878;-33.370;-70.552;2023-02-28T06:45:27;92039.75;;;24.77;28.61
17521;BME280;8878;-33.370;-70.552;2023-02-28T06:47:57;92033.63;;;24.80;29.45
17521;BME280;8878;-33.370;-70.552;2023-02-28T06:50:26;92024.06;;;24.83;30.24
17521;BME280;8878;-33.370;-70.552;2023-02-28T06:52:57;92030.09;;;24.76;29.86
17521;BME280;8878;-33.370;-70.552;2023-02-28T06:55:28;92025.97;;;24.82;29.70
17521;BME280;8878;-33.370;-70.552;2023-02-28T06:57:58;92030.53;;;24.78;28.84
17521;BME280;8878;-33.370;-70.552;2023-02-28T07:03:34;92028.75;;;24.47;28.32
17521;BME280;8878;-33.370;-70.552;2023-02-28T07:06:04;92024.41;;;24.43;27.76
17521;BME280;8878;-33.370;-70.552;2023-02-28T07:08:34;92014.91;;;24.49;28.15
17521;BME280;8878;-33.370;-70.552;2023-02-28T07:11:06;92011.88;;;24.50;28.53
17521;BME280;8878;-33.370;-70.552;2023-02-28T07:13:36;92009.16;;;24.50;27.64
17521;BME280;8878;-33.370;-70.552;2023-02-28T07:16:06;92012.22;;;24.49;27.53
17521;BME280;8878;-33.370;-70.552;2023-02-28T07:18:36;92008.44;;;24.34;27.43
17521;BME280;8878;-33.370;-70.552;2023-02-28T07:21:08;92000.97;;;24.28;27.73
17521;BME280;8878;-33.370;-70.552;2023-02-28T07:23:38;91996.09;;;24.52;27.37
17521;BME280;8878;-33.370;-70.552;2023-02-28T07:26:12;91993.97;;;24.42;28.64
17521;BME280;8878;-33.370;-70.552;2023-02-28T07:28:42;91993.63;;;24.44;28.21
17521;BME280;8878;-33.370;-70.552;2023-02-28T07:31:12;92000.16;;;24.43;28.63
17521;BME280;8878;-33.370;-70.552;2023-02-28T07:33:42;91989.72;;;24.41;28.96
17521;BME280;8878;-33.370;-70.552;2023-02-28T07:36:13;91994.59;;;24.36;29.21
17521;BME280;8878;-33.370;-70.552;2023-02-28T07:38:44;91998.03;;;24.17;28.69
17521;BME280;8878;-33.370;-70.552;2023-02-28T07:41:17;91998.78;;;23.98;25.78
17521;BME280;8878;-33.370;-70.552;2023-02-28T07:43:48;91994.03;;;24.46;28.33
17521;BME280;8878;-33.370;-70.552;2023-02-28T07:46:17;91995.31;;;24.52;27.63
17521;BME280;8878;-33.370;-70.552;2023-02-28T07:48:48;91994.81;;;24.46;28.38
17521;BME280;8878;-33.370;-70.552;2023-02-28T07:51:19;91995.88;;;24.42;28.90
17521;BME280;8878;-33.370;-70.552;2023-02-28T07:53:48;91997.16;;;24.29;28.71
17521;BME280;8878;-33.370;-70.552;2023-02-28T07:56:20;92013.63;;;24.43;27.54
17521;BME280;8878;-33.370;-70.552;2023-02-28T07:58:50;92009.56;;;24.33;26.56
17521;BME280;8878;-33.370;-70.552;2023-02-28T08:01:19;92004.31;;;24.05;28.21
17521;BME280;8878;-33.370;-70.552;2023-02-28T08:03:48;92001.13;;;24.00;28.41
17521;BME280;8878;-33.370;-70.552;2023-02-28T08:06:19;92010.69;;;23.97;30.07
17521;BME280;8878;-33.370;-70.552;2023-02-28T08:08:49;92005.41;;;23.85;29.63
17521;BME280;8878;-33.370;-70.552;2023-02-28T08:11:20;92001.94;;;23.69;29.20
17521;BME280;8878;-33.370;-70.552;2023-02-28T08:13:49;92012.28;;;23.83;28.69
17521;BME280;8878;-33.370;-70.552;2023-02-28T08:16:19;92005.16;;;23.74;28.75
17521;BME280;8878;-33.370;-70.552;2023-02-28T08:18:50;92005.94;;;23.75;28.58
17521;BME280;8878;-33.370;-70.552;2023-02-28T08:21:20;92002.47;;;23.74;28.57
17521;BME280;8878;-33.370;-70.552;2023-02-28T08:23:50;92004.53;;;23.81;28.76
17521;BME280;8878;-33.370;-70.552;2023-02-28T08:26:21;92004.03;;;23.60;29.94
17521;BME280;8878;-33.370;-70.552;2023-02-28T08:28:50;92002.22;;;23.64;28.82
17521;BME280;8878;-33.370;-70.552;2023-02-28T08:31:20;92014.13;;;23.63;28.58
17521;BME280;8878;-33.370;-70.552;2023-02-28T08:33:49;92000.81;;;23.86;27.81
17521;BME280;8878;-33.370;-70.552;2023-02-28T08:36:20;91999.47;;;23.95;28.92
17521;BME280;8878;-33.370;-70.552;2023-02-28T08:38:49;92000.13;;;23.73;29.45
17521;BME280;8878;-33.370;-70.552;2023-02-28T08:41:20;91998.81;;;23.67;29.22
17521;BME280;8878;-33.370;-70.552;2023-02-28T08:43:49;92001.63;;;23.55;29.71
17521;BME280;8878;-33.370;-70.552;2023-02-28T08:46:21;92006.56;;;23.68;29.38
17521;BME280;8878;-33.370;-70.552;2023-02-28T08:48:52;92000.38;;;23.68;28.86
17521;BME280;8878;-33.370;-70.552;2023-02-28T08:51:22;91992.91;;;23.77;29.68
17521;BME280;8878;-33.370;-70.552;2023-02-28T08:53:53;91994.53;;;23.81;30.46
17521;BME280;8878;-33.370;-70.552;2023-02-28T08:56:24;91992.31;;;23.68;31.78
17521;BME280;8878;-33.370;-70.552;2023-02-28T08:58:55;91991.13;;;23.65;31.75
17521;BME280;8878;-33.370;-70.552;2023-02-28T09:01:27;91990.84;;;23.55;30.97
17521;BME280;8878;-33.370;-70.552;2023-02-28T09:03:58;91993.44;;;23.67;30.04
17521;BME280;8878;-33.370;-70.552;2023-02-28T09:06:28;91987.00;;;23.71;30.62
17521;BME280;8878;-33.370;-70.552;2023-02-28T09:08:58;91988.41;;;23.65;30.26
17521;BME280;8878;-33.370;-70.552;2023-02-28T09:11:31;91983.88;;;23.69;30.83
17521;BME280;8878;-33.370;-70.552;2023-02-28T09:14:01;91983.09;;;23.69;30.38
17521;BME280;8878;-33.370;-70.552;2023-02-28T09:16:32;91981.03;;;23.62;30.96
17521;BME280;8878;-33.370;-70.552;2023-02-28T09:19:02;91985.47;;;23.55;31.81
17521;BME280;8878;-33.370;-70.552;2023-02-28T09:21:31;91989.78;;;23.43;32.45
17521;BME280;8878;-33.370;-70.552;2023-02-28T09:24:00;91992.50;;;23.43;32.19
17521;BME280;8878;-33.370;-70.552;2023-02-28T09:26:32;91995.59;;;23.46;31.35
17521;BME280;8878;-33.370;-70.552;2023-02-28T09:29:01;91994.81;;;23.45;32.04
17521;BME280;8878;-33.370;-70.552;2023-02-28T09:31:31;92004.22;;;23.35;31.67
17521;BME280;8878;-33.370;-70.552;2023-02-28T09:34:01;92009.31;;;23.25;30.98
17521;BME280;8878;-33.370;-70.552;2023-02-28T09:36:30;92012.78;;;23.25;30.40
17521;BME280;8878;-33.370;-70.552;2023-02-28T09:39:00;92011.56;;;23.38;29.79
17521;BME280;8878;-33.370;-70.552;2023-02-28T09:41:37;92009.84;;;23.46;29.89
17521;BME280;8878;-33.370;-70.552;2023-02-28T09:44:25;92007.63;;;23.48;29.32
17521;BME280;8878;-33.370;-70.552;2023-02-28T09:46:58;92006.13;;;23.66;29.68
17521;BME280;8878;-33.370;-70.552;2023-02-28T09:49:37;92004.13;;;23.63;30.37
17521;BME280;8878;-33.370;-70.552;2023-02-28T09:52:10;92005.44;;;23.54;30.73
17521;BME280;8878;-33.370;-70.552;2023-02-28T09:54:41;92008.06;;;23.66;30.95
17521;BME280;8878;-33.370;-70.552;2023-02-28T09:57:19;91998.66;;;23.60;30.63
17521;BME280;8878;-33.370;-70.552;2023-02-28T09:59:58;92004.91;;;23.64;31.02
17521;BME280;8878;-33.370;-70.552;2023-02-28T10:02:48;92002.41;;;23.55;30.53
17521;BME280;8878;-33.370;-70.552;2023-02-28T10:05:24;92012.00;;;23.40;30.55
17521;BME280;8878;-33.370;-70.552;2023-02-28T10:08:05;92007.66;;;23.20;29.15
17521;BME280;8878;-33.370;-70.552;2023-02-28T10:10:39;92001.81;;;23.02;28.91
17521;BME280;8878;-33.370;-70.552;2023-02-28T10:13:20;92010.19;;;23.29;28.78
17521;BME280;8878;-33.370;-70.552;2023-02-28T10:15:55;92003.97;;;23.56;28.26
17521;BME280;8878;-33.370;-70.552;2023-02-28T10:18:28;92009.06;;;23.46;28.43
17521;BME280;8878;-33.370;-70.552;2023-02-28T10:21:00;92007.88;;;23.59;27.62
17521;BME280;8878;-33.370;-70.552;2023-02-28T10:23:34;92006.91;;;23.67;27.45
17521;BME280;8878;-33.370;-70.552;2023-02-28T10:26:11;92011.16;;;23.68;28.39
17521;BME280;8878;-33.370;-70.552;2023-02-28T10:28:44;92014.56;;;23.65;28.83
17521;BME280;8878;-33.370;-70.552;2023-02-28T10:31:18;92022.31;;;23.51;28.99
17521;BME280;8878;-33.370;-70.552;2023-02-28T10:33:48;92021.19;;;23.52;29.14
17521;BME280;8878;-33.370;-70.552;2023-02-28T10:36:19;92023.25;;;23.58;27.62
17521;BME280;8878;-33.370;-70.552;2023-02-28T10:38:50;92021.38;;;23.47;27.46
17521;BME280;8878;-33.370;-70.552;2023-02-28T10:41:28;92016.47;;;23.49;26.73
17521;BME280;8878;-33.370;-70.552;2023-02-28T10:44:19;92014.56;;;23.49;27.48
17521;BME280;8878;-33.370;-70.552;2023-02-28T10:46:51;92016.38;;;23.61;27.53
17521;BME280;8878;-33.370;-70.552;2023-02-28T10:49:22;92015.84;;;23.87;27.42
17521;BME280;8878;-33.370;-70.552;2023-02-28T10:51:54;92013.06;;;23.83;27.54
17521;BME280;8878;-33.370;-70.552;2023-02-28T10:54:28;92015.06;;;23.86;27.82
17521;BME280;8878;-33.370;-70.552;2023-02-28T10:57:15;92028.03;;;23.65;27.51
17521;BME280;8878;-33.370;-70.552;2023-02-28T10:59:46;92019.94;;;23.65;28.22
17521;BME280;8878;-33.370;-70.552;2023-02-28T11:02:34;92020.03;;;23.53;28.24
17521;BME280;8878;-33.370;-70.552;2023-02-28T11:05:24;92025.91;;;23.42;27.71
17521;BME280;8878;-33.370;-70.552;2023-02-28T11:07:54;92024.41;;;23.45;27.06
17521;BME280;8878;-33.370;-70.552;2023-02-28T11:10:26;92020.88;;;23.41;26.67
17521;BME280;8878;-33.370;-70.552;2023-02-28T11:12:58;92018.81;;;23.66;26.07
17521;BME280;8878;-33.370;-70.552;2023-02-28T11:15:30;92019.31;;;23.87;25.01
17521;BME280;8878;-33.370;-70.552;2023-02-28T11:18:17;92027.72;;;24.01;25.99
17521;BME280;8878;-33.370;-70.552;2023-02-28T11:20:50;92026.88;;;24.16;26.38
17521;BME280;8878;-33.370;-70.552;2023-02-28T11:23:20;92029.53;;;23.97;25.89
17521;BME280;8878;-33.370;-70.552;2023-02-28T11:25:51;92031.88;;;24.14;25.26
17521;BME280;8878;-33.370;-70.552;2023-02-28T11:28:28;92030.84;;;24.38;26.16
17521;BME280;8878;-33.370;-70.552;2023-02-28T11:31:16;92033.09;;;24.71;27.07
17521;BME280;8878;-33.370;-70.552;2023-02-28T11:33:47;92042.53;;;25.00;26.89
17521;BME280;8878;-33.370;-70.552;2023-02-28T11:36:20;92041.47;;;25.05;27.11
17521;BME280;8878;-33.370;-70.552;2023-02-28T11:38:51;92044.59;;;25.07;28.06
17521;BME280;8878;-33.370;-70.552;2023-02-28T11:41:39;92049.53;;;25.24;26.76
17521;BME280;8878;-33.370;-70.552;2023-02-28T11:44:32;92052.22;;;25.43;26.19
17521;BME280;8878;-33.370;-70.552;2023-02-28T11:47:11;92051.94;;;25.52;26.62
17521;BME280;8878;-33.370;-70.552;2023-02-28T11:49:48;92051.66;;;25.80;25.35
17521;BME280;8878;-33.370;-70.552;2023-02-28T11:52:32;92064.69;;;25.97;23.85
17521;BME280;8878;-33.370;-70.552;2023-02-28T11:55:16;92061.81;;;25.86;23.10
17521;BME280;8878;-33.370;-70.552;2023-02-28T11:57:59;92052.28;;;25.69;23.48
17521;BME280;8878;-33.370;-70.552;2023-02-28T12:00:42;92061.00;;;25.59;23.97
17521;BME280;8878;-33.370;-70.552;2023-02-28T12:03:26;92057.38;;;25.74;23.93
17521;BME280;8878;-33.370;-70.552;2023-02-28T12:06:05;92054.91;;;25.66;24.12
17521;BME280;8878;-33.370;-70.552;2023-02-28T12:08:47;92050.28;;;25.66;24.60
17521;BME280;8878;-33.370;-70.552;2023-02-28T12:11:28;92059.38;;;25.78;24.89
17521;BME280;8878;-33.370;-70.552;2023-02-28T12:14:14;92062.97;;;25.62;24.72
17521;BME280;8878;-33.370;-70.552;2023-02-28T12:16:58;92061.06;;;26.12;24.06
17521;BME280;8878;-33.370;-70.552;2023-02-28T12:19:38;92056.47;;;26.39;24.25
17521;BME280;8878;-33.370;-70.552;2023-02-28T12:22:30;92053.09;;;26.23;24.43
17521;BME280;8878;-33.370;-70.552;2023-02-28T12:25:38;92049.28;;;26.50;24.06
17521;BME280;8878;-33.370;-70.552;2023-02-28T12:28:12;92053.91;;;26.79;23.33
17521;BME280;8878;-33.370;-70.552;2023-02-28T12:30:49;92050.13;;;26.58;24.33
17521;BME280;8878;-33.370;-70.552;2023-02-28T12:33:24;92050.63;;;26.63;23.96
17521;BME280;8878;-33.370;-70.552;2023-02-28T12:36:00;92053.69;;;26.62;23.33
17521;BME280;8878;-33.370;-70.552;2023-02-28T12:38:38;92049.88;;;26.66;23.89
17521;BME280;8878;-33.370;-70.552;2023-02-28T12:41:13;92053.34;;;26.67;24.46
17521;BME280;8878;-33.370;-70.552;2023-02-28T12:43:46;92043.44;;;27.08;23.13
17521;BME280;8878;-33.370;-70.552;2023-02-28T12:46:19;92040.72;;;27.45;23.41
17521;BME280;8878;-33.370;-70.552;2023-02-28T12:48:53;92033.25;;;27.72;23.87
17521;BME280;8878;-33.370;-70.552;2023-02-28T12:51:27;92029.56;;;27.94;24.84
17521;BME280;8878;-33.370;-70.552;2023-02-28T12:54:07;92027.63;;;27.91;23.70
17521;BME280;8878;-33.370;-70.552;2023-02-28T12:56:44;92030.84;;;28.07;23.47
17521;BME280;8878;-33.370;-70.552;2023-02-28T12:59:23;92024.75;;;28.17;22.99
17521;BME280;8878;-33.370;-70.552;2023-02-28T13:05:14;92035.97;;;28.16;23.09
17521;BME280;8878;-33.370;-70.552;2023-02-28T13:10:56;92039.66;;;28.41;22.63
17521;BME280;8878;-33.370;-70.552;2023-02-28T13:13:27;92048.06;;;27.78;23.23
17521;BME280;8878;-33.370;-70.552;2023-02-28T13:16:03;92053.50;;;27.44;23.82
17521;BME280;8878;-33.370;-70.552;2023-02-28T13:18:35;92053.03;;;27.35;23.74
17521;BME280;8878;-33.370;-70.552;2023-02-28T13:21:07;92053.78;;;27.36;23.68
17521;BME280;8878;-33.370;-70.552;2023-02-28T13:27:20;92050.66;;;27.67;23.29
17521;BME280;8878;-33.370;-70.552;2023-02-28T13:29:52;92055.22;;;27.56;23.34
17521;BME280;8878;-33.370;-70.552;2023-02-28T13:32:36;92055.34;;;27.70;23.12